Time;durP1;ratioP1;P1;durP2;ratioP2;P2;SDS_P1;SDS_P2;PMS_P1;PMS_P2;Temp;Humidity;BMP_temperature;BMP_pressure;BME280_temperature;BME280_humidity;BME280_pressure;Samples;Min_cycle;Max_cycle;Signal;HPM_P1;HPM_P2
2021/03/11 00:02:14;;;;;;;17.00;10.87;;;;;;;-0.11;54.80;100482.75;5066071;28;20140;-90
2021/03/11 00:04:43;;;;;;;17.83;9.57;;;;;;;-0.04;55.60;100479.41;5025277;28;20043;-90
2021/03/11 00:07:10;;;;;;;19.17;9.53;;;;;;;-0.06;55.54;100472.47;5020282;28;20091;-90
2021/03/11 00:09:36;;;;;;;18.20;9.50;;;;;;;0.05;55.62;100470.06;5032279;28;20077;-91
2021/03/11 00:12:22;;;;;;;17.67;10.93;;;;;;;0.08;55.28;100457.13;5107495;23;20055;-89
2021/03/11 00:14:49;;;;;;;17.83;9.80;;;;;;;0.04;55.51;100444.94;5050313;28;20340;-87
2021/03/11 00:17:15;;;;;;;18.27;11.17;;;;;;;0.01;56.30;100434.50;5073004;28;20146;-88
2021/03/11 00:19:43;;;;;;;18.43;9.57;;;;;;;0.09;56.26;100431.19;5042527;28;20484;-88
2021/03/11 00:22:11;;;;;;;19.40;10.20;;;;;;;0.17;56.42;100431.31;5057586;28;20040;-88
2021/03/11 00:24:37;;;;;;;20.00;10.53;;;;;;;0.13;56.58;100414.81;5041554;28;20052;-88
2021/03/11 00:27:03;;;;;;;19.03;10.37;;;;;;;0.12;56.56;100423.44;5050621;28;20048;-89
2021/03/11 00:29:30;;;;;;;18.77;10.77;;;;;;;0.08;57.92;100412.97;5037608;28;20552;-87
2021/03/11 00:31:56;;;;;;;19.17;10.97;;;;;;;0.16;57.81;100407.03;5037844;28;20738;-88
2021/03/11 00:34:22;;;;;;;21.13;10.90;;;;;;;0.14;57.97;100400.97;5040825;28;20043;-87
2021/03/11 00:36:49;;;;;;;17.40;10.30;;;;;;;0.11;58.63;100394.84;5058491;28;20044;-88
2021/03/11 00:39:16;;;;;;;18.87;10.97;;;;;;;0.17;58.77;100392.34;5058096;28;21890;-88
2021/03/11 00:41:43;;;;;;;20.17;10.80;;;;;;;0.20;59.37;100382.88;5051585;28;20040;-88
2021/03/11 00:44:09;;;;;;;22.87;11.47;;;;;;;0.22;59.95;100382.91;5039548;28;20056;-88
2021/03/11 00:46:36;;;;;;;20.23;11.53;;;;;;;0.34;59.78;100380.53;5048490;28;20056;-89
2021/03/11 00:49:03;;;;;;;21.03;10.87;;;;;;;0.39;60.47;100362.41;5035725;28;20441;-89
2021/03/11 00:51:29;;;;;;;19.50;11.20;;;;;;;0.38;60.17;100361.53;5060736;28;20052;-90
2021/03/11 00:53:55;;;;;;;19.97;10.80;;;;;;;0.39;61.30;100352.88;5039565;28;20043;-88
2021/03/11 00:56:21;;;;;;;23.83;12.87;;;;;;;0.57;61.65;100347.94;5043147;28;20047;-90
2021/03/11 00:58:48;;;;;;;21.63;12.53;;;;;;;0.61;60.92;100337.63;5046132;28;20401;-88
2021/03/11 01:01:14;;;;;;;26.37;11.70;;;;;;;0.59;61.17;100326.31;5041008;28;20119;-89
2021/03/11 01:03:41;;;;;;;25.47;12.83;;;;;;;0.63;62.41;100318.59;5059620;28;20043;-89
2021/03/11 01:06:08;;;;;;;21.27;12.07;;;;;;;0.69;63.04;100305.69;5038469;28;20159;-89
2021/03/11 01:08:34;;;;;;;25.90;13.63;;;;;;;0.73;63.44;100304.84;5057994;28;20512;-90
2021/03/11 01:11:00;;;;;;;25.50;13.83;;;;;;;0.88;63.05;100295.50;5040672;28;20058;-89
2021/03/11 01:13:27;;;;;;;25.17;12.60;;;;;;;0.87;64.09;100292.03;5041079;28;20121;-89
2021/03/11 01:15:53;;;;;;;22.57;13.47;;;;;;;0.81;64.10;100295.44;5056015;28;20047;-89
2021/03/11 01:18:20;;;;;;;25.97;14.27;;;;;;;0.91;64.56;100287.75;5043353;28;20044;-89
2021/03/11 01:20:46;;;;;;;26.40;14.70;;;;;;;0.88;64.71;100277.31;5061320;28;20438;-89
2021/03/11 01:23:13;;;;;;;26.27;13.43;;;;;;;0.93;65.47;100260.03;5046003;28;20044;-89
2021/03/11 01:25:39;;;;;;;26.83;13.93;;;;;;;0.99;65.88;100260.97;5041387;28;20042;-88
2021/03/11 01:28:05;;;;;;;29.13;14.13;;;;;;;0.96;66.25;100254.88;5055197;28;20063;-89
2021/03/11 01:30:31;;;;;;;28.17;13.67;;;;;;;0.96;66.37;100241.88;5057847;28;20400;-89
2021/03/11 01:32:58;;;;;;;24.67;13.87;;;;;;;0.99;66.67;100229.75;5044422;28;20084;-88
2021/03/11 01:35:24;;;;;;;29.30;14.80;;;;;;;1.02;67.09;100229.81;5041924;28;20616;-90
2021/03/11 01:37:51;;;;;;;27.27;14.73;;;;;;;1.06;67.05;100218.56;5053701;28;20039;-89
2021/03/11 01:40:18;;;;;;;27.70;15.67;;;;;;;1.12;67.73;100215.16;5042815;28;20082;-89
2021/03/11 01:42:45;;;;;;;28.93;14.73;;;;;;;1.19;67.85;100205.72;5058320;28;20067;-90
2021/03/11 01:45:12;;;;;;;27.83;14.87;;;;;;;1.18;67.84;100203.94;5042665;28;20423;-90
2021/03/11 01:47:38;;;;;;;27.27;14.93;;;;;;;1.22;68.37;100200.53;5045700;28;20149;-90
2021/03/11 01:50:05;;;;;;;26.63;15.27;;;;;;;1.26;68.07;100194.47;5043399;28;20040;-90
2021/03/11 01:52:33;;;;;;;32.83;15.83;;;;;;;1.25;68.10;100193.59;5064361;28;20074;-89
2021/03/11 01:55:01;;;;;;;27.20;14.73;;;;;;;1.28;68.85;100185.84;5041041;28;20504;-88
2021/03/11 01:57:28;;;;;;;28.60;14.77;;;;;;;1.35;68.58;100184.19;5053819;28;20447;-89
2021/03/11 01:59:55;;;;;;;29.70;16.47;;;;;;;1.28;69.13;100175.44;5049647;28;20131;-89
2021/03/11 02:02:21;;;;;;;30.80;16.83;;;;;;;1.22;69.13;100166.69;5057142;28;20259;-89
2021/03/11 02:04:48;;;;;;;30.00;16.47;;;;;;;1.39;69.65;100165.13;5040029;28;20475;-90
2021/03/11 02:07:14;;;;;;;27.53;16.13;;;;;;;1.39;69.79;100159.91;5055571;28;20040;-90
2021/03/11 02:09:40;;;;;;;29.77;15.87;;;;;;;1.41;69.72;100147.78;5061159;28;20256;-90
2021/03/11 02:12:17;;;;;;;30.57;17.40;;;;;;;1.40;69.96;100131.28;5063125;28;20036;-90
2021/03/11 02:15:02;;;;;;;32.83;16.53;;;;;;;1.36;70.51;100133.88;5040762;28;20331;-89
2021/03/11 02:17:50;;;;;;;29.53;17.17;;;;;;;1.40;70.78;100125.22;5072730;28;20556;-90
2021/03/11 02:20:59;;;;;;;29.70;15.63;;;;;;;1.32;70.33;100114.72;5054864;28;20044;-90
2021/03/11 02:23:47;;;;;;;31.43;18.20;;;;;;;1.36;71.59;100106.09;5072131;28;20066;-91
2021/03/11 02:26:45;;;;;;;36.13;17.80;;;;;;;1.32;72.24;100108.66;5072758;28;20051;-90
2021/03/11 02:29:23;;;;;;;38.60;17.83;;;;;;;1.37;72.33;100099.16;5073436;28;20599;-90
2021/03/11 02:31:50;;;;;;;35.73;18.43;;;;;;;1.50;71.51;100093.19;5054275;28;20032;-89
2021/03/11 02:34:20;;;;;;;31.40;16.63;;;;;;;1.38;71.81;100087.91;5055116;28;20040;-90
2021/03/11 02:36:55;;;;;;;35.70;19.67;;;;;;;1.41;72.57;100087.91;5044398;28;20052;-90
2021/03/11 02:39:24;;;;;;;31.80;17.65;;;;;;;1.38;72.83;100093.09;5042803;28;20379;-90
2021/03/11 02:41:52;;;;;;;34.83;18.40;;;;;;;1.50;72.83;100077.56;5067981;28;20507;-89
2021/03/11 02:44:20;;;;;;;34.67;18.73;;;;;;;1.46;73.16;100073.22;5040758;28;20074;-90
2021/03/11 02:46:48;;;;;;;34.60;17.87;;;;;;;1.44;73.64;100082.75;5042443;28;20036;-91
2021/03/11 02:49:14;;;;;;;34.67;19.03;;;;;;;1.45;73.57;100079.28;5044988;28;20065;-89
2021/03/11 02:51:42;;;;;;;33.70;19.30;;;;;;;1.45;74.29;100063.66;5053659;28;20035;-90
2021/03/11 02:54:09;;;;;;;32.20;17.43;;;;;;;1.48;74.45;100068.88;5041688;28;20036;-90
2021/03/11 02:56:52;;;;;;;35.00;19.27;;;;;;;1.53;73.83;100066.31;5043383;28;20079;-90
2021/03/11 02:59:19;;;;;;;39.33;20.07;;;;;;;1.52;74.66;100057.63;5075088;28;20032;-89
2021/03/11 03:01:47;;;;;;;36.73;19.97;;;;;;;1.51;74.66;100063.69;5043041;28;20040;-89
2021/03/11 03:04:14;;;;;;;35.47;19.47;;;;;;;1.60;75.54;100053.34;5040262;28;20101;-90
2021/03/11 03:06:41;;;;;;;37.87;19.77;;;;;;;1.66;75.14;100055.09;5046159;28;20103;-90
2021/03/11 03:09:08;;;;;;;39.33;19.67;;;;;;;1.66;75.18;100039.47;5069029;28;20135;-90
2021/03/11 03:11:35;;;;;;;38.67;20.10;;;;;;;1.69;76.13;100048.19;5037521;28;20499;-89
2021/03/11 03:14:03;;;;;;;37.20;20.17;;;;;;;1.69;76.66;100042.97;5041593;28;20496;-91
2021/03/11 03:16:29;;;;;;;40.17;20.10;;;;;;;1.62;77.97;100024.72;5042802;28;20048;-90
2021/03/11 03:18:56;;;;;;;40.33;20.17;;;;;;;1.65;77.94;100019.50;5060636;28;20089;-90
2021/03/11 03:21:23;;;;;;;42.13;21.03;;;;;;;1.66;78.55;100016.91;5045213;28;20039;-90
2021/03/11 03:23:50;;;;;;;37.53;19.57;;;;;;;1.72;79.12;100010.88;5042500;28;20128;-88
2021/03/11 03:26:17;;;;;;;38.43;20.10;;;;;;;1.72;79.17;100005.66;5059764;28;20085;-90
2021/03/11 03:28:44;;;;;;;41.17;20.87;;;;;;;1.65;80.86;99994.34;5041763;28;20067;-89
2021/03/11 03:31:11;;;;;;;38.57;20.93;;;;;;;1.62;81.48;99991.72;5051866;28;20503;-92
2021/03/11 03:33:37;;;;;;;45.10;21.43;;;;;;;1.54;82.33;99983.00;5047262;28;20039;-90
2021/03/11 03:36:04;;;;;;;44.17;21.47;;;;;;;1.62;82.29;99973.50;5032867;28;20090;-92
2021/03/11 03:38:30;;;;;;;40.63;19.47;;;;;;;1.55;83.78;99966.53;5044675;28;20036;-92
2021/03/11 03:41:00;;;;;;;41.83;23.47;;;;;;;1.53;84.49;99960.44;5036397;28;20241;-91
2021/03/11 03:43:30;;;;;;;42.77;23.23;;;;;;;1.54;86.10;99954.38;5038991;28;20048;-91
2021/03/11 03:46:06;;;;;;;47.77;21.33;;;;;;;1.49;86.73;99950.88;5040358;28;20040;-90
2021/03/11 03:48:43;;;;;;;40.60;21.37;;;;;;;1.43;88.14;99950.88;5072824;28;20508;-91
2021/03/11 03:51:10;;;;;;;41.87;22.07;;;;;;;1.42;88.96;99949.97;5054297;28;20067;-89
2021/03/11 03:53:43;;;;;;;44.40;22.37;;;;;;;1.33;90.45;99947.31;5045798;28;20040;-91
2021/03/11 03:56:15;;;;;;;42.13;21.77;;;;;;;1.31;91.39;99945.59;5054414;28;20074;-91
2021/03/11 03:58:42;;;;;;;45.53;22.67;;;;;;;1.28;93.45;99914.34;5043790;28;20122;-90
2021/03/11 04:01:09;;;;;;;48.53;23.77;;;;;;;1.14;96.03;99906.47;5050197;28;20044;-90
2021/03/11 04:03:38;;;;;;;48.70;25.00;;;;;;;1.12;97.19;99896.06;5049797;28;20302;-91
2021/03/11 04:06:09;;;;;;;51.07;24.93;;;;;;;1.13;97.59;99884.78;5038876;28;20040;-91
2021/03/11 04:08:40;;;;;;;51.53;24.40;;;;;;;1.07;98.07;99876.94;5040239;28;20542;-91
2021/03/11 04:11:06;;;;;;;50.30;25.53;;;;;;;1.03;98.81;99861.31;5036089;28;20354;-91
2021/03/11 04:13:34;;;;;;;43.93;24.07;;;;;;;1.04;99.21;99855.25;5051008;28;20055;-91
2021/03/11 04:16:01;;;;;;;50.10;25.83;;;;;;;1.01;100.00;99850.91;5056863;28;20409;-91
2021/03/11 04:18:28;;;;;;;51.30;26.37;;;;;;;0.98;100.00;99848.28;5038585;28;20163;-91
2021/03/11 04:20:55;;;;;;;55.97;26.10;;;;;;;1.00;100.00;99833.53;5020421;28;20486;-92
2021/03/11 04:23:21;;;;;;;53.97;25.43;;;;;;;1.00;100.00;99833.53;5022111;28;20143;-92
2021/03/11 04:25:48;;;;;;;50.90;26.33;;;;;;;1.04;100.00;99826.66;5022153;28;20326;-90
2021/03/11 04:28:15;;;;;;;57.10;26.90;;;;;;;1.00;100.00;99817.94;5033519;28;20046;-91
2021/03/11 04:30:42;;;;;;;58.70;27.67;;;;;;;1.01;100.00;99813.59;5084254;28;20347;-91
2021/03/11 04:33:09;;;;;;;53.63;25.20;;;;;;;1.04;100.00;99813.63;5065896;28;20130;-91
2021/03/11 04:35:35;;;;;;;51.40;25.53;;;;;;;1.04;100.00;99813.63;5065724;28;20050;-92
2021/03/11 04:38:03;;;;;;;54.77;26.93;;;;;;;1.02;100.00;99808.44;5046433;28;20131;-92
2021/03/11 04:40:30;;;;;;;56.27;27.67;;;;;;;0.94;100.00;99788.47;5047849;28;20050;-91
2021/03/11 04:42:57;;;;;;;63.83;29.10;;;;;;;0.96;100.00;99785.00;5049143;28;20514;-92
2021/03/11 04:45:23;;;;;;;56.87;27.60;;;;;;;1.00;100.00;99775.47;5066389;28;20071;-90
2021/03/11 04:47:51;;;;;;;57.17;27.77;;;;;;;1.03;100.00;99772.88;5049121;28;20040;-92
2021/03/11 04:50:18;;;;;;;59.53;27.93;;;;;;;1.10;100.00;99766.84;5062037;28;20095;-92
2021/03/11 04:52:45;;;;;;;60.17;29.33;;;;;;;1.05;100.00;99753.81;5060078;28;20109;-92
2021/03/11 04:55:19;;;;;;;56.30;27.38;;;;;;;1.05;100.00;99753.81;5068196;28;20062;-92
2021/03/11 04:57:46;;;;;;;52.60;26.53;;;;;;;1.08;100.00;99748.63;5060972;28;20385;-92
2021/03/11 05:00:15;;;;;;;56.30;29.07;;;;;;;1.08;100.00;99738.22;5059718;28;20180;-92
2021/03/11 05:02:44;;;;;;;60.13;27.17;;;;;;;1.14;100.00;99729.56;5042869;28;20051;-93
2021/03/11 05:05:11;;;;;;;59.13;28.40;;;;;;;1.12;100.00;99720.91;5042238;28;20048;-92
2021/03/11 05:07:37;;;;;;;53.27;28.03;;;;;;;1.14;100.00;99713.97;5059120;28;20078;-92
2021/03/11 05:10:04;;;;;;;51.87;26.47;;;;;;;1.09;100.00;99711.34;5042634;28;20159;-92
2021/03/11 05:12:30;;;;;;;57.93;29.43;;;;;;;1.18;100.00;99700.09;5038879;28;20047;-91
2021/03/11 05:14:56;;;;;;;50.30;25.33;;;;;;;1.17;100.00;99692.28;5062997;28;20053;-92
2021/03/11 05:17:23;;;;;;;55.70;26.43;;;;;;;1.22;100.00;99674.94;5062894;28;20043;-93
2021/03/11 05:19:50;;;;;;;52.73;25.60;;;;;;;1.18;100.00;99668.00;5062318;28;20094;-92
2021/03/11 05:22:17;;;;;;;56.50;27.53;;;;;;;1.20;100.00;99658.47;5046783;28;20744;-92
2021/03/11 05:24:43;;;;;;;55.97;27.00;;;;;;;1.21;100.00;99657.59;5053460;28;20044;-92
2021/03/11 05:27:17;;;;;;;54.22;25.60;;;;;;;1.26;100.00;99651.56;5041578;28;20074;-92
2021/03/11 05:29:43;;;;;;;53.57;25.77;;;;;;;1.32;100.00;99651.53;5079454;28;20075;-92
2021/03/11 05:32:10;;;;;;;50.70;26.93;;;;;;;1.35;100.00;99635.94;5063355;28;20439;-92
2021/03/11 05:34:36;;;;;;;52.20;26.27;;;;;;;1.34;100.00;99641.13;5045987;28;20040;-92
2021/03/11 05:37:03;;;;;;;57.20;26.97;;;;;;;1.28;100.00;99638.53;5043629;28;20055;-92
2021/03/11 05:39:30;;;;;;;59.93;26.90;;;;;;;1.34;100.00;99628.97;5042812;28;20115;-91
2021/03/11 05:41:57;;;;;;;56.50;26.80;;;;;;;1.32;100.00;99630.72;5043190;28;20523;-92
2021/03/11 05:44:24;;;;;;;55.30;27.77;;;;;;;1.37;100.00;99618.59;5042752;28;20138;-93
2021/03/11 05:46:50;;;;;;;58.27;27.47;;;;;;;1.42;100.00;99626.38;5059501;28;20040;-91
2021/03/11 05:49:18;;;;;;;55.97;26.83;;;;;;;1.40;100.00;99609.91;5042934;28;20040;-91
2021/03/11 05:51:44;;;;;;;60.00;27.90;;;;;;;1.47;100.00;99602.97;5059601;28;20040;-91
2021/03/11 05:54:11;;;;;;;51.30;24.83;;;;;;;1.49;100.00;99594.28;5059918;28;20040;-92
2021/03/11 05:56:38;;;;;;;57.37;27.77;;;;;;;1.61;100.00;99586.47;5043132;28;20140;-91
2021/03/11 05:59:05;;;;;;;55.03;26.50;;;;;;;1.52;100.00;99586.50;5042593;28;20051;-92
2021/03/11 06:01:32;;;;;;;57.10;26.20;;;;;;;1.57;100.00;99571.72;5059160;28;20040;-92
2021/03/11 06:04:01;;;;;;;57.43;28.13;;;;;;;1.65;100.00;99558.69;5041936;28;20523;-91
2021/03/11 06:06:30;;;;;;;58.10;27.27;;;;;;;1.65;100.00;99543.94;5058475;28;20052;-91
2021/03/11 06:08:56;;;;;;;53.90;26.33;;;;;;;1.66;100.00;99556.06;5042246;28;20040;-92
2021/03/11 06:11:23;;;;;;;55.73;27.70;;;;;;;1.71;100.00;99531.78;5042514;28;20068;-91
2021/03/11 06:13:50;;;;;;;52.93;25.70;;;;;;;1.73;100.00;99523.09;5041800;28;20573;-92
2021/03/11 06:16:23;;;;;;;58.43;26.93;;;;;;;1.85;100.00;99511.75;5058196;28;20094;-91
2021/03/11 06:18:50;;;;;;;55.63;26.90;;;;;;;1.90;100.00;99521.28;5039519;28;20048;-92
2021/03/11 06:21:20;;;;;;;48.90;26.10;;;;;;;1.97;100.00;99533.41;5021886;28;20131;-91
2021/03/11 06:23:47;;;;;;;59.20;28.23;;;;;;;2.02;100.00;99503.84;5056148;28;20195;-93
2021/03/11 06:26:14;;;;;;;53.63;25.30;;;;;;;2.00;100.00;99510.81;5041035;28;20044;-92
2021/03/11 06:28:46;;;;;;;50.23;25.73;;;;;;;2.07;100.00;99510.78;5053405;28;20555;-92
2021/03/11 06:31:25;;;;;;;53.07;24.87;;;;;;;2.13;100.00;99499.50;5061059;28;20044;-92
2021/03/11 06:33:54;;;;;;;51.93;23.90;;;;;;;2.08;100.00;99516.88;5041794;28;20044;-91
2021/03/11 06:36:22;;;;;;;54.80;28.00;;;;;;;2.11;100.00;99522.09;5038486;28;20043;-92
2021/03/11 06:38:50;;;;;;;51.27;25.30;;;;;;;2.13;100.00;99505.56;5054174;28;20135;-93
2021/03/11 06:41:16;;;;;;;47.90;23.27;;;;;;;2.14;100.00;99499.47;5058274;28;20089;-92
2021/03/11 06:44:02;;;;;;;52.40;24.33;;;;;;;2.15;100.00;99493.38;5041483;28;20050;-92
2021/03/11 06:46:29;;;;;;;56.40;26.40;;;;;;;2.18;100.00;99485.53;5039693;28;20045;-92
2021/03/11 06:49:11;;;;;;;48.20;25.43;;;;;;;2.18;100.00;99482.06;5041532;28;20315;-92
2021/03/11 06:51:39;;;;;;;51.63;26.03;;;;;;;2.12;100.00;99474.31;5041372;28;20501;-94
2021/03/11 06:54:06;;;;;;;51.87;26.17;;;;;;;2.19;100.00;99469.06;5061806;28;20100;-91
2021/03/11 06:56:32;;;;;;;49.97;26.27;;;;;;;2.20;100.00;99468.19;5061085;28;20092;-92
2021/03/11 06:59:02;;;;;;;52.70;25.40;;;;;;;2.23;100.00;99455.13;5061508;28;20437;-91
2021/03/11 07:01:30;;;;;;;49.73;25.67;;;;;;;2.24;100.00;99459.47;5049640;28;20524;-92
2021/03/11 07:04:01;;;;;;;59.27;28.50;;;;;;;2.28;100.00;99462.06;5062258;28;20051;-93
2021/03/11 07:06:35;;;;;;;61.07;33.77;;;;;;;2.22;100.00;99455.13;5038990;28;20048;-93
2021/03/11 07:09:05;;;;;;;62.15;29.63;;;;;;;2.22;100.00;99445.56;5021961;28;20144;-93
2021/03/11 07:11:32;;;;;;;58.73;29.07;;;;;;;2.25;100.00;99448.16;5053429;28;20044;-94
2021/03/11 07:14:02;;;;;;;53.90;26.10;;;;;;;2.31;100.00;99433.38;5037273;28;20116;-94
2021/03/11 07:16:33;;;;;;;50.90;24.70;;;;;;;2.40;100.00;99431.56;5038053;28;20044;-93
2021/03/11 07:19:17;;;;;;;54.27;26.47;;;;;;;2.48;100.00;99431.50;5021745;28;20036;-93
2021/03/11 07:21:49;;;;;;;51.33;25.10;;;;;;;2.43;100.00;99413.28;5055583;28;20051;-93
2021/03/11 07:24:36;;;;;;;51.23;25.10;;;;;;;2.48;100.00;99421.06;5021431;28;20428;-93
2021/03/11 07:27:09;;;;;;;48.80;25.70;;;;;;;2.47;100.00;99416.75;5038331;28;20231;-94
2021/03/11 07:29:36;;;;;;;51.23;25.63;;;;;;;2.53;100.00;99412.34;5039695;28;20045;-93
2021/03/11 07:32:04;;;;;;;47.17;23.77;;;;;;;2.51;100.00;99406.25;5038504;28;20098;-93
2021/03/11 07:34:36;;;;;;;48.97;24.73;;;;;;;2.56;100.00;99414.06;5022117;28;20063;-93
2021/03/11 07:37:03;;;;;;;50.07;24.00;;;;;;;2.51;100.00;99392.38;5024833;28;20045;-93
2021/03/11 07:39:36;;;;;;;45.27;21.83;;;;;;;2.57;100.00;99387.09;5024294;28;20074;-93
2021/03/11 07:42:07;;;;;;;50.37;23.80;;;;;;;2.62;100.00;99398.38;5023833;28;20116;-93
2021/03/11 07:44:35;;;;;;;51.73;22.77;;;;;;;2.53;100.00;99395.84;5040885;28;20052;-93
2021/03/11 07:47:10;;;;;;;40.90;21.80;;;;;;;2.56;100.00;99395.81;5027267;28;20037;-94
2021/03/11 07:49:37;;;;;;;43.30;21.63;;;;;;;2.57;100.00;99388.84;5025657;28;20080;-94
2021/03/11 07:52:11;;;;;;;46.27;21.90;;;;;;;2.57;100.00;99381.88;5027053;28;20116;-93
2021/03/11 07:54:39;;;;;;;41.47;20.70;;;;;;;2.69;100.00;99389.63;5028277;28;20322;-94
2021/03/11 07:57:05;;;;;;;42.47;20.80;;;;;;;2.63;100.00;99380.97;5030346;28;20063;-94
2021/03/11 07:59:43;;;;;;;46.63;23.07;;;;;;;2.71;100.00;99381.78;5030490;28;20052;-93
2021/03/11 08:02:13;;;;;;;41.27;21.90;;;;;;;2.73;100.00;99380.88;5036353;28;20020;-94
2021/03/11 08:04:46;;;;;;;43.23;21.97;;;;;;;2.72;100.00;99363.50;5046182;28;20051;-94
2021/03/11 08:07:28;;;;;;;46.97;21.23;;;;;;;2.72;100.00;99360.03;5064426;28;20153;-95
2021/03/11 08:09:57;;;;;;;40.13;20.07;;;;;;;2.71;100.00;99348.75;5045660;28;20059;-95
2021/03/11 08:12:34;;;;;;;43.33;19.93;;;;;;;2.79;100.00;99359.09;5044489;28;20051;-93
2021/03/11 08:15:15;;;;;;;41.93;20.53;;;;;;;2.75;100.00;99337.38;5041840;28;20508;-94
2021/03/11 08:17:47;;;;;;;38.87;20.13;;;;;;;2.73;100.00;99336.53;5061382;28;20053;-94
2021/03/11 08:20:20;;;;;;;;;;;;;;;2.78;100.00;99346.94;5047324;28;20020;-93
2021/03/11 08:22:54;;;;;;;41.23;20.53;;;;;;;2.79;100.00;99333.03;5062529;28;20313;-94
2021/03/11 08:25:33;;;;;;;41.58;22.02;;;;;;;2.73;100.00;99328.72;5078835;28;20045;-93
2021/03/11 08:28:23;;;;;;;40.83;18.53;;;;;;;2.73;100.00;99323.50;5060137;28;20052;-93
2021/03/11 08:30:55;;;;;;;38.67;19.73;;;;;;;2.79;100.00;99328.66;5060955;28;20035;-94
2021/03/11 08:33:26;;;;;;;38.67;19.57;;;;;;;2.87;100.00;99325.97;5048594;28;20043;-94
2021/03/11 08:35:55;;;;;;;37.77;19.53;;;;;;;2.86;100.00;99324.25;5079946;28;20132;-94
2021/03/11 08:38:22;;;;;;;37.53;19.20;;;;;;;2.94;100.00;99313.72;5045923;28;20032;-93
2021/03/11 08:40:53;;;;;;;37.30;19.90;;;;;;;2.90;100.00;99309.44;5060627;28;20024;-94
2021/03/11 08:43:35;;;;;;;43.03;20.90;;;;;;;2.99;100.00;99309.31;5060132;28;20351;-92
2021/03/11 08:46:09;;;;;;;40.27;21.57;;;;;;;2.96;100.00;99298.94;5058266;28;20040;-91
2021/03/11 08:48:40;;;;;;;;;;;;;;;2.96;100.00;99312.84;5046653;28;20032;-93
2021/03/11 08:51:31;;;;;;;35.23;18.27;;;;;;;2.99;100.00;99309.31;5059351;28;19908;-94
2021/03/11 08:54:00;;;;;;;34.83;18.73;;;;;;;3.05;100.00;99296.22;5072090;28;20052;-94
2021/03/11 08:56:26;;;;;;;35.53;18.73;;;;;;;3.15;100.00;99281.31;5026041;23;20041;-72
2021/03/11 08:59:16;;;;;;;40.20;20.43;;;;;;;3.14;100.00;99274.34;5046421;28;20041;-72
2021/03/11 09:01:52;;;;;;;37.33;19.57;;;;;;;3.15;100.00;99279.56;4938480;28;20042;-75
2021/03/11 09:04:20;;;;;;;40.90;20.93;;;;;;;3.14;100.00;99288.25;4971465;28;20050;-74
2021/03/11 09:06:53;;;;;;;40.50;22.77;;;;;;;3.14;100.00;99292.63;4982262;28;20165;-75
2021/03/11 09:09:38;;;;;;;41.27;21.30;;;;;;;3.18;100.00;99276.88;4961155;28;21143;-74
2021/03/11 09:12:10;;;;;;;38.47;20.17;;;;;;;3.20;100.00;99275.16;5005655;28;20046;-75
2021/03/11 09:14:40;;;;;;;39.57;22.97;;;;;;;3.20;100.00;99284.72;5006767;28;20050;-76
2021/03/11 09:17:14;;;;;;;38.93;20.37;;;;;;;3.32;100.00;99274.13;4973940;28;20062;-75
2021/03/11 09:19:50;;;;;;;39.55;21.20;;;;;;;3.35;100.00;99287.13;5003597;28;20499;-73
2021/03/11 09:22:17;;;;;;;40.67;20.60;;;;;;;3.37;100.00;99277.53;4972208;28;20065;-75
2021/03/11 09:25:08;;;;;;;35.70;19.10;;;;;;;3.43;100.00;99253.94;4988664;28;20050;-75
2021/03/11 09:27:38;;;;;;;37.13;18.87;;;;;;;3.56;100.00;99250.28;4986821;28;20054;-76
2021/03/11 09:30:25;;;;;;;32.17;18.00;;;;;;;3.62;100.00;99249.34;4993044;28;20041;-75
2021/03/11 09:32:51;;;;;;;38.80;20.40;;;;;;;3.56;100.00;99242.44;4972949;28;20049;-76
2021/03/11 09:35:19;;;;;;;32.80;17.23;;;;;;;3.60;100.00;99240.63;4988324;28;20061;-75
2021/03/11 09:37:48;;;;;;;35.20;18.57;;;;;;;3.60;100.00;99236.28;4974452;28;20046;-75
2021/03/11 09:40:38;;;;;;;38.07;19.73;;;;;;;3.61;100.00;99243.22;4990013;28;20060;-75
2021/03/11 09:43:07;;;;;;;39.33;19.80;;;;;;;3.76;100.00;99216.00;5006030;28;20041;-76
2021/03/11 09:45:50;;;;;;;32.57;18.87;;;;;;;3.71;100.00;99227.44;5007160;28;20056;-76
2021/03/11 09:48:35;;;;;;;32.60;17.30;;;;;;;3.73;100.00;99221.28;4971630;28;20429;-76
2021/03/11 09:51:04;;;;;;;36.37;19.17;;;;;;;3.77;100.00;99207.28;4984350;28;20169;-76
2021/03/11 09:53:39;;;;;;;38.03;18.90;;;;;;;3.81;100.00;99205.50;5004452;28;20038;-76
2021/03/11 09:56:11;;;;;;;36.43;19.30;;;;;;;3.85;100.00;99200.19;4985849;28;20046;-76
2021/03/11 09:58:46;;;;;;;34.07;18.27;;;;;;;3.88;100.00;99200.16;4987085;28;20037;-76
2021/03/11 10:01:41;;;;;;;35.93;18.67;;;;;;;3.99;100.00;99197.34;4984771;28;20048;-76
2021/03/11 10:04:12;;;;;;;33.37;19.17;;;;;;;4.01;100.00;99187.72;4972311;28;20042;-75
2021/03/11 10:06:50;;;;;;;34.60;18.40;;;;;;;4.05;100.00;99193.78;4971074;28;20657;-73
2021/03/11 10:09:17;;;;;;;31.43;17.00;;;;;;;4.00;100.00;99191.22;5006887;28;20091;-75
2021/03/11 10:11:48;;;;;;;34.23;17.90;;;;;;;4.06;100.00;99187.66;4973140;28;20299;-76
2021/03/11 10:14:20;;;;;;;36.03;19.73;;;;;;;4.09;100.00;99184.97;4983245;28;20041;-75
2021/03/11 10:16:49;;;;;;;30.73;16.77;;;;;;;4.14;100.00;99183.16;4971328;28;20050;-75
2021/03/11 10:19:27;;;;;;;37.07;18.97;;;;;;;4.23;100.00;99188.22;5003808;28;20136;-76
2021/03/11 10:22:07;;;;;;;30.70;17.47;;;;;;;4.29;100.00;99169.81;4985825;28;20037;-76
2021/03/11 10:24:39;;;;;;;35.60;18.57;;;;;;;4.30;100.00;99179.38;4969709;28;20537;-75
2021/03/11 10:27:17;;;;;;;39.40;21.00;;;;;;;4.38;100.00;99179.22;4952547;28;20045;-75
2021/03/11 10:29:44;;;;;;;31.30;17.40;;;;;;;4.44;100.00;99166.00;4971080;28;20052;-75
2021/03/11 10:32:10;;;;;;;33.83;17.30;;;;;;;4.47;100.00;99160.75;4996303;28;20065;-75
2021/03/11 10:34:47;;;;;;;32.00;18.13;;;;;;;4.54;100.00;99159.72;4988395;28;20041;-75
2021/03/11 10:37:32;;;;;;;32.07;17.33;;;;;;;4.75;100.00;99140.97;4982478;28;20062;-75
2021/03/11 10:40:19;;;;;;;36.40;18.13;;;;;;;4.84;100.00;99131.19;4987862;28;20056;-75
2021/03/11 10:42:47;;;;;;;30.93;17.90;;;;;;;4.92;100.00;99130.13;4970552;28;20097;-75
2021/03/11 10:45:19;;;;;;;33.80;17.87;;;;;;;5.11;100.00;99125.34;5006171;28;20098;-75
2021/03/11 10:47:58;;;;;;;35.90;18.97;;;;;;;5.19;100.00;99131.25;4972825;28;20045;-74
2021/03/11 10:50:27;;;;;;;29.60;17.27;;;;;;;5.24;100.00;99121.56;4988067;28;20112;-74
2021/03/11 10:52:56;;;;;;;31.47;18.93;;;;;;;5.52;100.00;99103.41;4986263;28;20046;-74
2021/03/11 10:55:38;;;;;;;24.93;15.87;;;;;;;6.56;100.00;99094.50;4987471;28;20050;-73
2021/03/11 10:58:05;;;;;;;23.73;13.73;;;;;;;6.45;100.00;99100.94;4983759;28;20042;-73
2021/03/11 11:00:33;;;;;;;25.87;16.40;;;;;;;6.36;100.00;99114.31;4971122;28;20056;-73
2021/03/11 11:03:02;;;;;;;27.37;16.77;;;;;;;6.24;100.00;99098.06;5004983;28;20038;-73
2021/03/11 11:05:30;;;;;;;26.83;17.37;;;;;;;6.87;100.00;99091.84;4985584;28;20388;-73
2021/03/11 11:07:56;;;;;;;30.07;17.20;;;;;;;8.29;100.00;99072.16;4972258;28;20054;-72
2021/03/11 11:10:29;;;;;;;14.53;10.93;;;;;;;8.75;87.96;99062.59;5003079;28;20048;-72
2021/03/11 11:12:55;;;;;;;18.77;12.47;;;;;;;8.31;91.12;99054.53;4971189;28;20043;-70
2021/03/11 11:15:23;;;;;;;22.80;14.67;;;;;;;7.84;91.80;99043.97;4972219;28;20049;-73
2021/03/11 11:17:49;;;;;;;22.63;15.90;;;;;;;7.95;95.54;99046.22;4987858;28;20582;-71
2021/03/11 11:20:16;;;;;;;24.17;13.60;;;;;;;7.92;95.50;99037.59;4989294;28;20054;-70
2021/03/11 11:22:43;;;;;;;18.67;12.23;;;;;;;7.71;96.02;98990.09;4987912;28;20089;-70
2021/03/11 11:25:10;;;;;;;17.80;10.80;;;;;;;8.93;89.79;98995.16;4991173;28;20041;-70
2021/03/11 11:27:37;;;;;;;19.10;11.67;;;;;;;8.96;89.46;98997.66;4986657;28;20089;-70
2021/03/11 11:30:06;;;;;;;15.63;10.23;;;;;;;8.19;89.97;99011.13;4971145;28;20042;-73
2021/03/11 11:32:33;;;;;;;17.60;11.40;;;;;;;8.79;90.18;99003.59;5003872;28;20034;-72
2021/03/11 11:35:00;;;;;;;16.43;10.67;;;;;;;8.76;87.70;98980.03;4972046;28;20045;-70